Moosonee, Canada
Current Conditions -  °F | °C
As of 12:00 AM on Tuesday 21 Oct 2014 (Local Time) from CYMO Reporting Station
Broken Clouds Broken Clouds  
Wind Chill: -3°   Ceiling: 2800
Heat Index:   Visibility: 9mi
Dew Point: -1°   Wind: 6mph
Humidity: 93%   Direction: 320°NW
Pressure: 30.13"   Gusts: NA
Location:  51.27°N, 80.64°W
Report Text: CYMO 210400Z AUTO 32005KT 9SM FEW015 BKN028 BKN036 00/M01 A3013 RMK SLP204
Loading
Personal Weather Stations






























Interactive Weather Map
Tropical Storm Tracking
New forecast layout! Learn more

10-Day Weather Forecast

Advertisements
Track Severe Weather on mobile